Time;durP1;ratioP1;P1;durP2;ratioP2;P2;SDS_P1;SDS_P2;PMS_P1;PMS_P2;Temp;Humidity;BMP_temperature;BMP_pressure;BME280_temperature;BME280_humidity;BME280_pressure;Samples;Min_cycle;Max_cycle;Signal;HPM_P1;HPM_P2
2022/04/29 00:00:33;;;;;;;3.58;1.67;;;15.00;53.40;;;;;;5036330;28;20053;-72
2022/04/29 00:03:00;;;;;;;2.63;1.60;;;14.80;58.80;;;;;;5018582;28;20599;-72
2022/04/29 00:05:27;;;;;;;2.67;1.60;;;15.00;57.00;;;;;;5016611;28;20406;-72
2022/04/29 00:07:54;;;;;;;2.90;1.65;;;15.00;59.00;;;;;;5019966;28;20055;-72
2022/04/29 00:10:20;;;;;;;3.03;1.77;;;15.00;58.70;;;;;;5035927;28;20063;-72
2022/04/29 00:12:48;;;;;;;2.70;1.60;;;15.10;56.10;;;;;;5036002;28;20053;-73
2022/04/29 00:15:15;;;;;;;3.10;1.88;;;14.90;51.50;;;;;;5035920;28;20060;-73
2022/04/29 00:17:43;;;;;;;3.05;1.80;;;15.00;58.90;;;;;;5034391;28;20051;-73
2022/04/29 00:20:11;;;;;;;3.70;1.90;;;14.70;58.70;;;;;;5053434;28;20048;-73
2022/04/29 00:22:38;;;;;;;2.75;1.77;;;14.90;54.20;;;;;;5036100;28;20482;-73
2022/04/29 00:25:05;;;;;;;2.28;1.55;;;15.00;58.50;;;;;;5036048;28;20136;-73
2022/04/29 00:27:32;;;;;;;3.70;1.70;;;15.00;58.70;;;;;;5035892;28;20504;-73
2022/04/29 00:29:58;;;;;;;3.10;1.60;;;15.00;58.50;;;;;;5035874;28;20053;-73
2022/04/29 00:32:26;;;;;;;3.05;1.88;;;;;;;;;;5035451;28;20053;-73
2022/04/29 00:34:54;;;;;;;2.85;1.65;;;14.70;58.60;;;;;;5051923;28;20047;-73
2022/04/29 00:37:20;;;;;;;2.92;1.95;;;15.00;58.50;;;;;;5035788;28;20140;-73
2022/04/29 00:39:47;;;;;;;2.97;1.77;;;15.00;58.40;;;;;;5035535;28;20053;-73
2022/04/29 00:42:14;;;;;;;2.70;1.80;;;15.00;53.20;;;;;;5035871;28;20421;-73
2022/04/29 00:44:41;;;;;;;2.70;1.65;;;15.00;58.70;;;;;;5053003;28;20045;-73
2022/04/29 00:47:09;;;;;;;1.95;1.40;;;15.00;58.70;;;;;;5035497;28;20107;-73
2022/04/29 00:49:36;;;;;;;2.58;1.55;;;15.00;58.80;;;;;;5030336;28;20100;-72
2022/04/29 00:52:06;;;;;;;2.78;1.65;;;14.70;58.50;;;;;;5015646;28;20060;-72
2022/04/29 00:54:34;;;;;;;3.38;1.65;;;14.90;58.70;;;;;;5032986;28;20494;-73
2022/04/29 00:57:01;;;;;;;2.60;1.63;;;15.00;58.70;;;;;;5015782;28;20088;-73
2022/04/29 00:59:30;;;;;;;3.90;1.90;;;15.00;51.40;;;;;;5015504;28;20059;-72
2022/04/29 01:01:56;;;;;;;2.80;1.83;;;15.00;58.30;;;;;;5033064;28;20057;-73
2022/04/29 01:04:26;;;;;;;3.33;1.50;;;15.00;55.90;;;;;;5033145;28;20401;-73
2022/04/29 01:06:52;;;;;;;3.00;1.73;;;15.00;58.30;;;;;;5028998;28;20486;-72
2022/04/29 01:09:22;;;;;;;4.70;1.90;;;15.00;58.50;;;;;;5034986;28;20063;-72
2022/04/29 01:11:48;;;;;;;3.05;1.60;;;15.00;56.30;;;;;;5034882;28;20462;-72
2022/04/29 01:14:15;;;;;;;3.03;1.48;;;14.80;58.20;;;;;;5034983;28;20048;-72
2022/04/29 01:16:43;;;;;;;2.20;1.42;;;14.50;58.40;;;;;;5035045;28;20052;-72
2022/04/29 01:19:09;;;;;;;2.20;1.50;;;15.00;58.50;;;;;;5034947;28;20056;-73
2022/04/29 01:21:36;;;;;;;2.78;1.65;;;;;;;;;;5028723;28;20124;-72
2022/04/29 01:24:05;;;;;;;4.07;1.60;;;15.00;57.20;;;;;;5034176;28;20045;-72
2022/04/29 01:26:31;;;;;;;2.63;1.60;;;14.90;55.70;;;;;;5015060;28;20063;-72
2022/04/29 01:28:58;;;;;;;3.20;1.70;;;;;;;;;;5015140;28;20053;-72
2022/04/29 01:31:27;;;;;;;2.92;1.67;;;14.90;58.10;;;;;;5014971;28;20426;-72
2022/04/29 01:33:53;;;;;;;1.98;1.60;;;15.00;58.50;;;;;;5014782;28;20142;-72
2022/04/29 01:36:20;;;;;;;2.42;1.70;;;14.90;58.50;;;;;;5048066;28;20072;-72
2022/04/29 01:38:47;;;;;;;2.20;1.55;;;;;;;;;;5015935;28;20521;-72
2022/04/29 01:41:15;;;;;;;2.67;1.60;;;14.90;58.30;;;;;;5032192;28;20059;-72
2022/04/29 01:43:42;;;;;;;2.78;1.40;;;14.80;58.50;;;;;;5014358;28;20057;-72
2022/04/29 01:46:09;;;;;;;2.10;1.50;;;14.90;58.20;;;;;;5014493;28;20063;-72
2022/04/29 01:48:38;;;;;;;3.15;1.40;;;14.80;57.90;;;;;;5014871;28;20490;-73
2022/04/29 01:51:06;;;;;;;3.25;1.60;;;14.90;58.60;;;;;;5014267;28;20391;-72
2022/04/29 01:53:32;;;;;;;3.08;1.65;;;14.40;58.00;;;;;;5014591;28;20487;-72
2022/04/29 01:55:59;;;;;;;2.10;1.52;;;;;;;;;;5015578;28;20494;-73
2022/04/29 01:58:28;;;;;;;2.58;1.60;;;14.80;58.40;;;;;;5026297;28;20065;-73
2022/04/29 02:00:54;;;;;;;3.00;1.83;;;14.90;58.30;;;;;;5033802;28;20118;-72
2022/04/29 02:03:21;;;;;;;3.00;1.58;;;14.90;58.50;;;;;;5034094;28;20464;-72
2022/04/29 02:05:48;;;;;;;2.92;1.50;;;;;;;;;;5033919;28;20149;-72
2022/04/29 02:08:15;;;;;;;2.58;1.55;;;;;;;;;;5033788;28;20056;-73
2022/04/29 02:10:42;;;;;;;4.65;1.50;;;;;;;;;;5032410;28;20049;-72
2022/04/29 02:13:09;;;;;;;3.20;1.67;;;15.00;58.60;;;;;;5034003;28;20049;-73
2022/04/29 02:15:37;;;;;;;3.00;1.50;;;14.80;51.10;;;;;;5033895;28;20102;-72
2022/04/29 02:18:04;;;;;;;2.83;1.65;;;;;;;;;;5033832;28;20140;-72
2022/04/29 02:20:31;;;;;;;2.17;1.50;;;14.80;58.40;;;;;;5033965;28;20049;-72
2022/04/29 02:22:58;;;;;;;2.00;1.40;;;14.80;58.20;;;;;;5033995;28;20053;-72
2022/04/29 02:25:24;;;;;;;2.75;1.70;;;14.80;57.40;;;;;;5034052;28;20052;-72
2022/04/29 02:27:51;;;;;;;2.88;1.40;;;14.60;58.10;;;;;;5032100;28;20486;-72
2022/04/29 02:30:18;;;;;;;2.90;1.40;;;14.50;58.00;;;;;;5033634;28;20061;-72
2022/04/29 02:32:46;;;;;;;2.17;1.50;;;14.80;51.10;;;;;;5033650;28;20049;-72
2022/04/29 02:35:13;;;;;;;3.80;1.58;;;14.90;56.30;;;;;;5033834;28;20413;-72
2022/04/29 02:37:39;;;;;;;3.30;1.50;;;14.80;58.30;;;;;;5051527;28;20133;-72
2022/04/29 02:40:07;;;;;;;1.80;1.33;;;14.90;58.40;;;;;;5033398;28;20057;-72
2022/04/29 02:42:34;;;;;;;4.20;1.50;;;14.90;58.40;;;;;;5033928;28;20053;-72
2022/04/29 02:45:01;;;;;;;2.33;1.45;;;;;;;;;;5031983;28;20061;-72
2022/04/29 02:47:28;;;;;;;2.28;1.48;;;14.80;58.40;;;;;;5027501;28;20140;-72
2022/04/29 02:49:56;;;;;;;2.33;1.40;;;14.90;51.10;;;;;;5031566;28;20103;-72
2022/04/29 02:52:22;;;;;;;3.38;1.50;;;14.30;57.80;;;;;;5013786;28;20132;-72
2022/04/29 02:54:49;;;;;;;2.70;1.48;;;;;;;;;;5031742;28;20137;-73
2022/04/29 02:57:16;;;;;;;1.45;1.30;;;14.90;58.20;;;;;;5031324;28;20046;-73
2022/04/29 02:59:43;;;;;;;2.22;1.45;;;;;;;;;;5032447;28;20494;-72
2022/04/29 03:02:10;;;;;;;1.50;1.30;;;14.90;58.30;;;;;;5040924;28;20049;-72
2022/04/29 03:04:36;;;;;;;2.92;1.50;;;14.90;58.30;;;;;;5033744;28;20052;-72
2022/04/29 03:07:05;;;;;;;2.88;1.58;;;15.00;51.00;;;;;;5050925;28;20053;-72
2022/04/29 03:09:32;;;;;;;3.03;1.50;;;14.60;58.20;;;;;;5051190;28;20055;-73
2022/04/29 03:11:59;;;;;;;2.42;1.50;;;14.90;55.40;;;;;;5033864;28;20513;-73
2022/04/29 03:14:26;;;;;;;3.15;1.50;;;;;;;;;;5037264;28;20057;-73
2022/04/29 03:16:52;;;;;;;2.05;1.17;;;15.00;58.40;;;;;;5035509;28;20060;-73
2022/04/29 03:19:19;;;;;;;2.72;1.30;;;14.60;58.20;;;;;;5037255;28;20057;-72
2022/04/29 03:21:46;;;;;;;2.08;1.40;;;14.50;55.70;;;;;;5054925;28;20489;-72
2022/04/29 03:24:14;;;;;;;1.92;1.58;;;14.90;58.30;;;;;;5037207;28;20056;-73
2022/04/29 03:26:41;;;;;;;2.60;1.50;;;14.90;58.30;;;;;;5036983;28;20408;-73
2022/04/29 03:29:08;;;;;;;2.83;1.40;;;14.60;52.10;;;;;;5037119;28;20064;-73
2022/04/29 03:31:34;;;;;;;2.83;1.50;;;14.80;58.20;;;;;;5036964;28;20053;-73
2022/04/29 03:34:01;;;;;;;2.95;1.42;;;14.60;58.10;;;;;;5035352;28;20053;-73
2022/04/29 03:36:28;;;;;;;1.58;1.25;;;;;;;;;;5037004;28;20060;-73
2022/04/29 03:38:55;;;;;;;2.63;1.30;;;14.80;55.70;;;;;;5037056;28;20055;-73
2022/04/29 03:41:23;;;;;;;3.08;1.67;;;14.50;57.70;;;;;;5035950;28;20049;-73
2022/04/29 03:43:50;;;;;;;2.15;1.38;;;15.00;58.00;;;;;;5036957;28;20045;-73
2022/04/29 03:46:17;;;;;;;1.80;1.40;;;14.90;57.30;;;;;;5054342;28;20048;-72
2022/04/29 03:51:28;;;;;;;2.03;1.40;;;14.90;52.60;;;;;;5036247;28;20410;-73
2022/04/29 03:53:55;;;;;;;2.20;1.40;;;14.90;58.20;;;;;;5036136;28;20045;-72
2022/04/29 03:56:23;;;;;;;2.20;1.30;;;15.00;58.00;;;;;;5036545;28;20053;-72
2022/04/29 03:58:50;;;;;;;2.38;1.30;;;14.90;58.10;;;;;;5036433;28;20106;-72
2022/04/29 04:01:17;;;;;;;2.13;1.30;;;15.00;57.70;;;;;;5035908;28;20057;-72
2022/04/29 04:03:43;;;;;;;2.67;1.38;;;15.00;57.90;;;;;;5036585;28;20049;-72
2022/04/29 04:08:55;;;;;;;1.70;1.30;;;14.80;57.90;;;;;;5036264;28;20045;-72
2022/04/29 04:11:23;;;;;;;2.33;1.50;;;14.90;58.20;;;;;;5036191;28;20060;-72
2022/04/29 04:13:50;;;;;;;2.17;1.30;;;14.90;53.40;;;;;;5036028;28;20567;-72
2022/04/29 04:16:16;;;;;;;2.95;1.50;;;14.50;55.70;;;;;;5036078;28;20063;-72
2022/04/29 04:18:43;;;;;;;1.88;1.35;;;;;;;;;;5036324;28;20059;-71
2022/04/29 04:21:10;;;;;;;2.33;1.42;;;14.90;57.90;;;;;;5052194;28;20059;-70
2022/04/29 04:23:37;;;;;;;2.15;1.48;;;;;;;;;;5035968;28;20094;-71
2022/04/29 04:26:04;;;;;;;2.55;1.50;;;14.50;57.80;;;;;;5036117;28;20059;-70
2022/04/29 04:28:32;;;;;;;2.40;1.48;;;14.90;58.20;;;;;;5030925;28;20568;-70
2022/04/29 04:30:59;;;;;;;1.65;1.40;;;14.80;57.80;;;;;;5015541;28;20058;-70
2022/04/29 04:33:25;;;;;;;2.10;1.23;;;14.70;53.40;;;;;;5013178;28;20049;-71
2022/04/29 04:35:52;;;;;;;1.85;1.33;;;15.00;57.90;;;;;;5015745;28;20062;-70
2022/04/29 04:38:19;;;;;;;2.80;1.30;;;14.50;57.60;;;;;;5034457;28;20080;-70
2022/04/29 04:40:47;;;;;;;1.63;1.13;;;14.90;53.60;;;;;;5012847;28;20053;-70
2022/04/29 04:43:14;;;;;;;1.85;1.42;;;;;;;;;;5015843;28;20084;-71
2022/04/29 04:45:46;;;;;;;2.63;1.40;;;14.90;58.00;;;;;;5015501;28;20049;-70
2022/04/29 04:48:16;;;;;;;2.38;1.42;;;;;;;;;;5015677;28;20057;-71
2022/04/29 04:50:42;;;;;;;1.75;1.10;;;15.00;57.80;;;;;;5015058;28;20049;-70
2022/04/29 04:53:09;;;;;;;1.92;1.20;;;14.70;57.60;;;;;;5032569;28;20038;-70
2022/04/29 04:55:37;;;;;;;2.85;1.30;;;15.10;50.50;;;;;;5032989;28;20042;-71
2022/04/29 04:58:04;;;;;;;1.30;1.20;;;14.60;57.20;;;;;;5014570;28;20052;-70
2022/04/29 05:00:30;;;;;;;2.00;1.20;;;15.20;54.70;;;;;;5014397;28;20045;-70
2022/04/29 05:02:58;;;;;;;2.22;1.50;;;15.10;57.60;;;;;;5032829;28;20049;-70
2022/04/29 05:05:25;;;;;;;1.60;1.30;;;15.20;57.70;;;;;;5032840;28;20063;-70
2022/04/29 05:07:52;;;;;;;1.80;1.33;;;15.30;57.40;;;;;;5032665;28;20049;-70
2022/04/29 05:10:20;;;;;;;2.00;1.30;;;15.30;51.00;;;;;;5016369;28;20053;-71
2022/04/29 05:12:47;;;;;;;1.67;1.30;;;15.30;55.40;;;;;;5032631;28;20556;-71
2022/04/29 05:15:14;;;;;;;1.67;1.30;;;15.40;57.30;;;;;;5012173;28;20049;-71
2022/04/29 05:17:41;;;;;;;3.13;1.35;;;15.30;57.50;;;;;;5015059;28;20052;-71
2022/04/29 05:20:11;;;;;;;2.45;1.13;;;15.30;57.40;;;;;;5014469;28;20053;-71
2022/04/29 05:22:37;;;;;;;1.88;1.30;;;15.50;57.50;;;;;;5030367;28;20046;-71
2022/04/29 05:25:05;;;;;;;3.08;1.40;;;15.40;57.20;;;;;;5032485;28;20068;-71
2022/04/29 05:27:32;;;;;;;1.83;1.10;;;15.40;57.40;;;;;;5026508;28;20059;-71
2022/04/29 05:29:59;;;;;;;2.15;1.40;;;;;;;;;;5052460;28;20577;-71
2022/04/29 05:32:26;;;;;;;1.95;1.23;;;15.40;57.20;;;;;;5035013;28;20053;-71
2022/04/29 05:34:53;;;;;;;1.92;1.15;;;15.60;57.00;;;;;;5034271;28;20067;-70
2022/04/29 05:37:21;;;;;;;2.10;1.20;;;14.80;56.70;;;;;;5052738;28;20074;-71
2022/04/29 05:42:32;;;;;;;2.20;1.20;;;15.50;57.10;;;;;;4995449;28;20066;-71
2022/04/29 05:44:58;;;;;;;2.65;1.40;;;15.20;56.60;;;;;;4995368;28;20418;-71
2022/04/29 05:47:25;;;;;;;1.40;1.10;;;;;;;;;;5012323;28;20050;-70
2022/04/29 05:49:52;;;;;;;2.40;1.33;;;15.80;56.80;;;;;;4995012;28;20058;-71
2022/04/29 05:52:19;;;;;;;2.55;1.10;;;15.80;56.70;;;;;;4995161;28;20057;-71
2022/04/29 05:54:47;;;;;;;4.20;1.45;;;15.70;56.80;;;;;;5012921;28;20075;-71
2022/04/29 05:57:14;;;;;;;1.30;1.20;;;16.50;53.50;;;;;;5009019;28;20469;-71
2022/04/29 05:59:41;;;;;;;2.00;1.17;;;15.70;56.40;;;;;;5014172;28;20059;-71
2022/04/29 06:02:08;;;;;;;2.13;1.20;;;;;;;;;;5032287;28;20056;-70
2022/04/29 06:04:35;;;;;;;2.28;1.20;;;15.30;56.40;;;;;;5014767;28;20049;-71
2022/04/29 06:07:01;;;;;;;1.73;1.25;;;15.80;56.30;;;;;;5014682;28;20083;-71
2022/04/29 06:09:28;;;;;;;1.45;1.13;;;15.60;53.50;;;;;;5031935;28;20055;-71
2022/04/29 06:11:56;;;;;;;1.67;1.20;;;15.90;56.20;;;;;;5014687;28;20056;-71
2022/04/29 06:14:23;;;;;;;2.42;1.60;;;16.10;56.30;;;;;;5032364;28;20046;-71
2022/04/29 06:16:49;;;;;;;1.88;1.20;;;16.60;56.60;;;;;;5014335;28;20053;-71
2022/04/29 06:19:16;;;;;;;2.15;1.20;;;16.50;56.70;;;;;;5014477;28;20057;-71
2022/04/29 06:21:43;;;;;;;2.15;1.15;;;15.70;55.90;;;;;;5014400;28;20115;-71
2022/04/29 06:24:09;;;;;;;1.35;1.10;;;16.40;56.30;;;;;;5031951;28;20055;-71
2022/04/29 06:26:36;;;;;;;2.30;1.20;;;;;;;;;;5031877;28;20048;-71
2022/04/29 06:29:05;;;;;;;2.60;1.30;;;16.00;56.20;;;;;;5039736;28;20045;-71
2022/04/29 06:31:31;;;;;;;1.58;1.10;;;16.10;56.10;;;;;;5033900;28;20053;-71
2022/04/29 06:33:58;;;;;;;1.40;1.10;;;15.50;55.50;;;;;;5033889;28;20059;-71
2022/04/29 06:36:25;;;;;;;1.85;1.10;;;16.40;56.30;;;;;;5051377;28;20049;-70
2022/04/29 06:38:52;;;;;;;1.30;1.20;;;15.20;55.20;;;;;;5051713;28;20072;-70
2022/04/29 06:41:19;;;;;;;2.15;1.10;;;15.70;52.30;;;;;;5050856;28;20056;-70
2022/04/29 06:43:46;;;;;;;1.63;1.20;;;16.30;55.90;;;;;;5051781;28;20056;-71
2022/04/29 06:46:14;;;;;;;2.35;1.10;;;16.40;55.70;;;;;;5034484;28;20057;-71
2022/04/29 06:48:41;;;;;;;1.77;1.15;;;16.40;55.70;;;;;;5043951;28;20053;-71
2022/04/29 06:51:08;;;;;;;1.50;1.10;;;15.60;55.20;;;;;;5018123;28;20506;-71
2022/04/29 06:53:34;;;;;;;1.80;1.17;;;16.20;55.80;;;;;;5043585;28;20049;-71
2022/04/29 06:56:01;;;;;;;2.22;1.10;;;;;;;;;;5055302;28;20051;-71
2022/04/29 06:58:28;;;;;;;1.83;1.10;;;15.50;55.00;;;;;;5055556;28;20052;-70
2022/04/29 07:00:55;;;;;;;2.10;1.30;;;16.50;55.80;;;;;;5018703;28;20064;-72
2022/04/29 07:03:23;;;;;;;1.75;1.00;;;15.70;55.00;;;;;;5013117;28;20622;-72
2022/04/29 07:05:51;;;;;;;2.25;1.40;;;17.20;55.00;;;;;;5012469;28;20058;-72
2022/04/29 07:08:20;;;;;;;1.60;1.10;;;16.40;48.80;;;;;;5014979;28;20134;-72
2022/04/29 07:10:46;;;;;;;2.30;1.20;;;16.80;55.80;;;;;;5016921;28;20056;-72
2022/04/29 07:13:13;;;;;;;1.73;1.20;;;16.40;55.30;;;;;;5015787;28;20632;-74
2022/04/29 07:15:43;;;;;;;1.30;1.05;;;15.70;54.90;;;;;;5033022;28;20053;-72
2022/04/29 07:18:10;;;;;;;2.38;1.30;;;16.70;52.00;;;;;;5014810;28;20417;-72
2022/04/29 07:20:38;;;;;;;1.88;1.27;;;16.60;55.60;;;;;;5017920;28;20433;-72
2022/04/29 07:23:05;;;;;;;2.13;1.40;;;17.30;55.90;;;;;;5014367;28;20056;-72
2022/04/29 07:25:32;;;;;;;2.42;1.20;;;16.00;55.20;;;;;;5022691;28;20057;-72
2022/04/29 07:27:58;;;;;;;2.13;1.38;;;16.60;55.70;;;;;;5036911;28;20135;-72
2022/04/29 07:30:26;;;;;;;2.45;1.23;;;16.50;55.50;;;;;;5036998;28;20568;-72
2022/04/29 07:32:52;;;;;;;2.67;1.10;;;16.60;54.80;;;;;;5037182;28;20131;-72
2022/04/29 07:43:33;;;;;;;2.38;1.40;;;16.30;55.50;;;;;;5031405;28;20041;-72
2022/04/29 07:46:01;;;;;;;2.88;1.23;;;16.20;55.70;;;;;;5032380;28;20459;-72
2022/04/29 07:48:27;;;;;;;2.42;1.30;;;15.60;55.40;;;;;;5017753;28;20502;-72
2022/04/29 07:50:54;;;;;;;3.35;1.35;;;;;;;;;;5024840;28;20049;-72
2022/04/29 07:53:23;;;;;;;1.75;1.20;;;16.10;55.80;;;;;;5034636;28;20050;-72
2022/04/29 07:55:49;;;;;;;1.77;1.10;;;15.60;55.90;;;;;;5016716;28;20057;-72
2022/04/29 07:58:16;;;;;;;2.25;1.40;;;16.30;56.40;;;;;;5020537;28;20053;-72
2022/04/29 08:00:44;;;;;;;2.58;1.30;;;16.40;51.80;;;;;;5016071;28;20072;-72
2022/04/29 08:03:10;;;;;;;3.97;1.42;;;16.40;56.50;;;;;;5016457;28;20084;-71
2022/04/29 08:05:37;;;;;;;2.45;1.15;;;16.30;54.20;;;;;;5015684;28;20046;-72
2022/04/29 08:08:04;;;;;;;3.75;1.52;;;16.40;56.60;;;;;;5015430;28;20475;-71
2022/04/29 08:10:35;;;;;;;3.45;1.40;;;16.20;50.30;;;;;;5014213;28;20053;-71
2022/04/29 08:13:04;;;;;;;1.83;1.27;;;16.90;56.90;;;;;;5012552;28;20429;-71
2022/04/29 08:15:33;;;;;;;3.63;1.92;;;16.30;52.90;;;;;;5014259;28;20048;-72
2022/04/29 08:18:00;;;;;;;4.43;1.48;;;15.80;53.10;;;;;;5027049;28;20406;-72
2022/04/29 08:20:27;;;;;;;3.92;1.45;;;16.90;57.00;;;;;;5014490;28;20053;-72
2022/04/29 08:22:53;;;;;;;1.70;1.20;;;16.50;56.60;;;;;;5015296;28;20057;-72
2022/04/29 08:25:20;;;;;;;1.98;1.30;;;17.00;56.60;;;;;;5015754;28;20136;-72
2022/04/29 08:27:50;;;;;;;3.33;1.33;;;16.50;56.60;;;;;;5017883;28;20103;-72
2022/04/29 08:30:17;;;;;;;2.80;1.23;;;17.10;56.90;;;;;;5016085;28;20099;-71
2022/04/29 08:32:44;;;;;;;3.63;1.50;;;16.40;49.90;;;;;;5015943;28;20048;-71
2022/04/29 08:35:11;;;;;;;2.42;1.35;;;15.60;55.60;;;;;;5033428;28;20054;-71
2022/04/29 08:37:38;;;;;;;2.08;1.30;;;15.60;51.20;;;;;;5033972;28;20055;-71
2022/04/29 08:40:06;;;;;;;2.33;1.40;;;16.50;56.30;;;;;;5033463;28;20128;-71
2022/04/29 08:42:36;;;;;;;1.73;1.20;;;16.70;56.10;;;;;;5033888;28;20053;-71
2022/04/29 08:45:06;;;;;;;4.50;1.40;;;15.80;55.90;;;;;;5034035;28;20050;-71
2022/04/29 08:47:35;;;;;;;4.35;1.27;;;16.50;56.10;;;;;;5016079;28;20076;-71
2022/04/29 08:50:02;;;;;;;3.05;1.83;;;16.60;56.20;;;;;;5033393;28;20122;-71
2022/04/29 08:52:29;;;;;;;4.18;1.30;;;16.40;56.60;;;;;;5015998;28;20049;-71
2022/04/29 09:00:26;;;;;;;2.80;1.40;;;16.70;57.00;;;;;;5014296;28;20053;-72
2022/04/29 09:02:53;;;;;;;3.38;1.35;;;;;;;;;;5017862;28;20132;-72
2022/04/29 09:05:20;;;;;;;5.53;2.00;;;;;;;;;;5015268;28;20063;-72
2022/04/29 09:07:59;;;;;;;12.48;3.72;;;16.00;56.30;;;;;;5015529;28;20508;-72
2022/04/29 09:10:27;;;;;;;25.58;7.00;;;17.10;56.80;;;;;;5031879;28;20084;-72
2022/04/29 09:12:55;;;;;;;21.83;5.78;;;17.10;56.50;;;;;;5015198;28;20108;-71
2022/04/29 09:15:23;;;;;;;25.52;5.93;;;17.20;56.40;;;;;;5015096;28;20053;-71
2022/04/29 09:17:51;;;;;;;23.23;7.20;;;17.30;56.40;;;;;;5034704;28;20053;-71
2022/04/29 09:20:19;;;;;;;21.55;7.15;;;17.30;56.70;;;;;;5034773;28;20056;-71
2022/04/29 09:22:47;;;;;;;36.42;11.48;;;17.90;56.80;;;;;;5034919;28;20053;-71
2022/04/29 09:25:14;;;;;;;26.23;8.40;;;17.40;56.50;;;;;;5034802;28;20057;-71
2022/04/29 09:27:57;;;;;;;20.15;6.97;;;17.30;49.80;;;;;;5052721;28;20053;-71
2022/04/29 09:30:38;;;;;;;39.03;11.75;;;17.30;55.70;;;;;;5034763;28;20132;-72
2022/04/29 09:33:20;;;;;;;36.15;11.88;;;17.30;56.30;;;;;;5130280;27;20318;-70
2022/04/29 09:35:47;;;;;;;35.28;10.32;;;16.80;55.70;;;;;;5125311;28;20496;-70
2022/04/29 09:40:59;;;;;;;24.08;6.45;;;17.30;55.90;;;;;;5109244;28;20397;-70
2022/04/29 09:43:36;;;;;;;20.80;6.60;;;17.50;56.30;;;;;;5108399;28;20056;-70
2022/04/29 09:46:13;;;;;;;13.45;5.10;;;17.30;49.60;;;;;;5108412;28;20056;-70
2022/04/29 09:48:58;;;;;;;16.13;6.20;;;17.50;56.50;;;;;;5096330;28;20416;-70
2022/04/29 09:51:45;;;;;;;14.15;4.82;;;17.10;56.00;;;;;;5098109;28;20123;-70
2022/04/29 09:54:15;;;;;;;13.15;4.70;;;17.30;56.20;;;;;;5109437;28;20043;-69
2022/04/29 09:56:42;;;;;;;10.48;4.40;;;17.10;56.10;;;;;;5108234;28;20142;-69
2022/04/29 09:59:11;;;;;;;10.45;3.70;;;16.40;55.50;;;;;;5109171;28;20144;-69
2022/04/29 10:01:38;;;;;;;14.15;4.38;;;17.30;55.90;;;;;;5107968;28;20047;-70
2022/04/29 10:04:07;;;;;;;11.05;4.15;;;17.40;56.10;;;;;;5107651;28;20444;-69
2022/04/29 10:06:34;;;;;;;8.60;3.60;;;17.50;56.00;;;;;;5141798;27;20142;-70
2022/04/29 10:09:01;;;;;;;9.63;3.40;;;17.50;56.10;;;;;;5109311;28;20078;-70
2022/04/29 10:11:28;;;;;;;9.10;3.53;;;17.20;55.80;;;;;;5108818;28;20109;-73
2022/04/29 10:13:56;;;;;;;10.55;3.50;;;17.30;55.70;;;;;;5125072;28;20074;-70
2022/04/29 10:16:23;;;;;;;9.43;2.95;;;17.60;56.00;;;;;;5109260;28;20047;-69
2022/04/29 10:21:45;;;;;;;6.75;2.60;;;17.50;55.80;;;;;;5108788;28;20039;-67
2022/04/29 10:24:12;;;;;;;7.75;2.88;;;17.70;55.90;;;;;;5108873;28;20399;-68
2022/04/29 10:26:39;;;;;;;5.35;2.53;;;17.90;56.00;;;;;;5107662;28;20101;-69
2022/04/29 10:29:05;;;;;;;7.43;2.70;;;17.40;55.20;;;;;;5107538;28;20478;-69
2022/04/29 10:31:32;;;;;;;8.13;2.58;;;17.30;55.40;;;;;;5108422;28;20588;-69
2022/04/29 10:34:29;;;;;;;5.35;2.28;;;18.00;55.50;;;;;;5108601;28;20043;-69
2022/04/29 10:36:57;;;;;;;5.93;2.55;;;17.10;55.40;;;;;;5105745;28;20082;-69
2022/04/29 10:39:24;;;;;;;4.88;2.30;;;16.50;54.50;;;;;;5107493;28;20142;-69
2022/04/29 10:42:01;;;;;;;5.88;2.00;;;17.50;50.80;;;;;;5108640;28;20122;-69
2022/04/29 10:44:28;;;;;;;3.58;1.80;;;17.20;54.80;;;;;;5128324;27;20062;-69
2022/04/29 10:46:55;;;;;;;7.05;2.17;;;17.30;54.80;;;;;;5094858;28;20058;-69
2022/04/29 10:49:25;;;;;;;4.97;2.20;;;17.60;54.60;;;;;;5094657;28;20135;-69
2022/04/29 10:51:52;;;;;;;3.60;2.08;;;17.60;55.20;;;;;;5092684;28;20052;-69
2022/04/29 10:54:46;;;;;;;3.58;1.98;;;17.20;55.00;;;;;;5075161;28;20062;-70
2022/04/29 10:57:16;;;;;;;5.75;2.17;;;17.30;55.00;;;;;;5092300;28;20055;-70
2022/04/29 10:59:57;;;;;;;4.45;2.00;;;18.00;55.50;;;;;;5097210;28;20051;-70
2022/04/29 11:02:27;;;;;;;3.25;2.10;;;16.30;54.60;;;;;;5096468;28;20047;-70
2022/04/29 11:04:54;;;;;;;3.70;2.30;;;17.30;54.80;;;;;;5099932;28;20059;-70
2022/04/29 11:07:42;;;;;;;4.50;2.40;;;16.60;54.40;;;;;;5097400;28;20058;-70
2022/04/29 11:10:12;;;;;;;6.05;2.58;;;17.30;55.00;;;;;;5106053;28;20501;-70
2022/04/29 11:12:39;;;;;;;3.33;2.63;;;17.20;55.10;;;;;;5102029;28;20390;-70
2022/04/29 11:15:14;;;;;;;6.05;2.50;;;17.30;54.80;;;;;;5090426;28;20401;-72
2022/04/29 11:17:41;;;;;;;6.07;2.90;;;17.30;54.90;;;;;;5083213;28;20457;-70
2022/04/29 11:20:18;;;;;;;5.32;2.75;;;17.40;55.10;;;;;;5121308;27;20062;-70
2022/04/29 11:25:54;;;;;;;5.00;2.80;;;17.50;55.00;;;;;;5127186;27;20127;-71
2022/04/29 11:28:21;;;;;;;4.03;2.88;;;17.30;54.90;;;;;;5126869;27;20127;-71
2022/04/29 11:30:48;;;;;;;3.60;2.60;;;17.20;55.10;;;;;;5093794;28;20407;-71
2022/04/29 11:33:14;;;;;;;6.68;3.05;;;17.40;55.20;;;;;;5092807;28;20062;-71
2022/04/29 11:35:42;;;;;;;4.63;2.78;;;17.10;55.10;;;;;;5090987;28;20058;-71
2022/04/29 11:38:09;;;;;;;5.88;2.72;;;17.30;55.00;;;;;;5093670;28;20055;-71
2022/04/29 11:40:38;;;;;;;6.47;2.78;;;17.20;55.20;;;;;;5092243;28;20044;-70
2022/04/29 11:43:10;;;;;;;4.45;3.28;;;17.20;54.80;;;;;;5076217;28;20049;-70
2022/04/29 11:45:37;;;;;;;4.38;2.88;;;17.00;55.40;;;;;;5072244;28;20056;-70
2022/04/29 11:48:04;;;;;;;4.72;2.70;;;17.00;55.00;;;;;;5072506;28;20066;-70
2022/04/29 11:50:32;;;;;;;4.90;3.20;;;17.20;55.20;;;;;;5071968;28;20142;-70
2022/04/29 11:53:04;;;;;;;4.20;3.00;;;17.20;49.00;;;;;;5072110;28;20056;-70
2022/04/29 11:55:31;;;;;;;5.93;3.10;;;17.30;55.20;;;;;;5071305;28;20063;-70
2022/04/29 11:57:58;;;;;;;4.18;3.08;;;16.20;54.80;;;;;;5079838;28;20050;-70
2022/04/29 12:00:27;;;;;;;6.18;3.50;;;17.10;48.90;;;;;;5091868;28;20138;-70
2022/04/29 12:02:54;;;;;;;6.07;3.70;;;16.30;54.50;;;;;;5093667;28;20413;-70
2022/04/29 12:05:22;;;;;;;5.78;3.17;;;17.10;55.20;;;;;;5092232;28;20051;-70
2022/04/29 12:07:49;;;;;;;5.88;3.30;;;17.30;55.40;;;;;;5093572;28;20075;-70
2022/04/29 12:10:17;;;;;;;4.03;3.08;;;17.10;55.50;;;;;;5092200;28;20090;-70
2022/04/29 12:12:43;;;;;;;5.30;2.92;;;17.20;55.00;;;;;;5091830;28;20048;-70
2022/04/29 12:15:11;;;;;;;4.50;3.03;;;17.50;55.70;;;;;;5077255;28;20052;-70
2022/04/29 12:17:40;;;;;;;4.28;3.10;;;16.90;55.50;;;;;;5071465;28;20048;-70
2022/04/29 12:20:08;;;;;;;3.65;2.90;;;16.40;54.60;;;;;;5071712;28;20055;-70
2022/04/29 12:22:36;;;;;;;4.15;3.10;;;17.10;49.00;;;;;;5120532;27;20055;-70
2022/04/29 12:25:23;;;;;;;5.00;3.05;;;17.10;55.10;;;;;;5092008;28;20061;-70
2022/04/29 12:28:11;;;;;;;5.55;3.05;;;17.00;55.40;;;;;;5091579;28;20060;-69
2022/04/29 12:36:09;;;;;;;4.07;3.03;;;17.00;48.90;;;;;;5098301;28;20079;-70
2022/04/29 12:38:35;;;;;;;4.63;3.00;;;17.10;55.30;;;;;;5094622;28;20060;-70
2022/04/29 12:41:29;;;;;;;4.05;3.20;;;16.20;54.40;;;;;;5102311;28;20134;-70
2022/04/29 12:44:07;;;;;;;4.70;3.45;;;17.10;55.20;;;;;;5049520;28;20048;-70
2022/04/29 12:46:34;;;;;;;5.07;3.15;;;17.90;55.50;;;;;;5099666;28;20508;-70
2022/04/29 12:49:02;;;;;;;5.57;3.28;;;17.60;55.70;;;;;;5097850;28;20135;-70
2022/04/29 12:51:31;;;;;;;5.00;3.35;;;17.00;55.10;;;;;;5125570;27;20115;-70
2022/04/29 12:53:58;;;;;;;4.03;3.03;;;17.20;55.50;;;;;;5092326;28;20054;-69
2022/04/29 12:56:26;;;;;;;3.83;3.00;;;17.80;56.00;;;;;;5091072;28;20142;-70
2022/04/29 12:58:53;;;;;;;4.97;2.95;;;17.10;55.50;;;;;;5090956;28;20126;-70
2022/04/29 13:01:19;;;;;;;3.70;2.80;;;17.10;55.40;;;;;;5110253;27;20055;-70
2022/04/29 13:03:50;;;;;;;5.75;2.88;;;17.10;55.40;;;;;;5091155;28;20522;-69
2022/04/29 13:06:20;;;;;;;4.72;3.45;;;17.40;55.70;;;;;;5090823;28;20135;-69
2022/04/29 13:08:52;;;;;;;8.32;2.90;;;17.00;55.30;;;;;;5091681;28;20093;-69
2022/04/29 13:11:18;;;;;;;5.32;2.90;;;17.40;55.50;;;;;;5090809;28;20052;-70
2022/04/29 13:13:45;;;;;;;5.05;2.80;;;17.20;55.50;;;;;;5089640;28;20048;-70
2022/04/29 13:16:12;;;;;;;6.78;3.00;;;18.00;55.80;;;;;;5072149;28;20044;-70
2022/04/29 13:18:39;;;;;;;6.38;2.85;;;17.20;55.40;;;;;;5071978;28;20374;-70
2022/04/29 13:21:08;;;;;;;4.53;2.83;;;17.80;55.40;;;;;;5077175;28;20058;-69
2022/04/29 13:23:36;;;;;;;5.97;2.92;;;17.90;55.70;;;;;;5091260;28;20055;-70
2022/04/29 13:26:03;;;;;;;6.45;2.90;;;17.30;55.40;;;;;;5088432;28;20131;-69
2022/04/29 13:28:31;;;;;;;4.50;3.05;;;17.10;55.20;;;;;;5088652;28;20090;-70
2022/04/29 13:30:58;;;;;;;9.25;3.03;;;17.30;55.20;;;;;;5068859;28;20135;-69
2022/04/29 13:33:25;;;;;;;4.55;2.95;;;17.60;55.60;;;;;;5068669;28;20297;-69
2022/04/29 13:35:51;;;;;;;7.53;3.10;;;17.10;55.10;;;;;;5070015;28;20055;-69